Time;durP1;ratioP1;P1;durP2;ratioP2;P2;SDS_P1;SDS_P2;PMS_P1;PMS_P2;Temp;Humidity;BMP_temperature;BMP_pressure;BME280_temperature;BME280_humidity;BME280_pressure;Samples;Min_cycle;Max_cycle;Signal;HPM_P1;HPM_P2
2024/04/18 00:00:32;;;;;;;;;;;;;;;5.85;100.00;101831.13;5527240;26;20325;-83
2024/04/18 00:02:57;;;;;;;;;;;;;;;5.88;100.00;101841.56;5496430;26;19927;-82
2024/04/18 00:05:23;;;;;;;;;;;;;;;6.08;100.00;101845.38;5527022;26;19935;-82
2024/04/18 00:07:48;;;;;;;;;;;;;;;6.24;100.00;101856.53;5496210;26;19934;-83
2024/04/18 00:10:14;;;;;;;;;;;;;;;6.38;100.00;101844.78;5496416;26;20365;-83
2024/04/18 00:12:39;;;;;;;;;;;;;;;6.53;100.00;101846.22;5496338;26;20334;-82
2024/04/18 00:15:06;;;;;;;;;;;;;;;6.68;100.00;101854.00;5496486;26;19934;-83
2024/04/18 00:17:33;;;;;;;;;;;;;;;6.77;100.00;101854.13;5465950;26;19928;-84
2024/04/18 00:19:59;;;;;;;;;;;;;;;6.80;100.00;101856.53;5465413;26;19956;-84
2024/04/18 00:22:24;;;;;;;;;;;;;;;6.86;100.00;101867.72;5526718;26;20086;-83
2024/04/18 00:24:50;;;;;;;;;;;;;;;6.87;100.00;101872.06;5465823;26;19927;-83
2024/04/18 00:27:15;;;;;;;;;;;;;;;6.81;100.00;101876.09;5496518;26;20354;-83
2024/04/18 00:29:41;;;;;;;;;;;;;;;6.81;100.00;101868.91;5465437;26;19996;-83
2024/04/18 00:32:06;;;;;;;;;;;;;;;6.84;100.00;101870.50;5526838;26;20008;-84
2024/04/18 00:34:32;;;;;;;;;;;;;;;6.85;100.00;101871.34;5495655;26;19928;-84
2024/04/18 00:36:57;;;;;;;;;;;;;;;6.78;100.00;101862.97;5465643;26;19998;-83
2024/04/18 00:39:22;;;;;;;;;;;;;;;6.75;100.00;101861.41;5526569;26;20361;-82
2024/04/18 00:41:48;;;;;;;;;;;;;;;6.73;100.00;101859.81;5495709;26;19935;-82
2024/04/18 00:44:13;;;;;;;;;;;;;;;6.62;100.00;101859.84;5495629;26;19953;-82
2024/04/18 00:46:39;;;;;;;;;;;;;;;6.58;100.00;101865.41;5495691;26;20277;-82
2024/04/18 00:49:04;;;;;;;;;;;;;;;6.48;100.00;101874.28;5465221;26;19928;-82
2024/04/18 00:51:30;;;;;;;;;;;;;;;6.46;100.00;101866.41;5495742;26;20365;-83
2024/04/18 00:53:56;;;;;;;;;;;;;;;6.33;100.00;101871.03;5495559;26;19931;-83
2024/04/18 00:56:21;;;;;;;;;;;;;;;6.14;100.00;101879.63;5465177;26;19927;-82
2024/04/18 00:58:50;;;;;;;;;;;;;;;6.07;100.00;101883.75;5495516;26;19999;-84
2024/04/18 01:01:15;;;;;;;;;;;;;;;6.01;100.00;101900.25;5526376;26;19935;-82
2024/04/18 01:03:40;;;;;;;;;;;;;;;5.90;100.00;101896.53;5526491;26;19935;-83
2024/04/18 01:06:07;;;;;;;;;;;;;;;5.88;100.00;101892.28;5495515;26;19934;-82
2024/04/18 01:08:32;;;;;;;;;;;;;;;6.04;100.00;101890.16;5495589;26;19959;-82
2024/04/18 01:10:57;;;;;;;;;;;;;;;6.15;100.00;101890.19;5495684;26;20330;-82
2024/04/18 01:13:23;;;;;;;;;;;;;;;6.22;100.00;101895.03;5526020;26;19927;-82
2024/04/18 01:15:48;;;;;;;;;;;;;;;6.15;100.00;101890.19;5495743;26;19928;-83
2024/04/18 01:18:14;;;;;;;;;;;;;;;6.09;100.00;101888.00;5465101;26;19935;-82
2024/04/18 01:20:40;;;;;;;;;;;;;;;6.10;100.00;101886.16;5495072;26;20354;-82
2024/04/18 01:23:05;;;;;;;;;;;;;;;6.18;100.00;101883.75;5494958;26;19934;-83
2024/04/18 01:25:30;;;;;;;;;;;;;;;6.29;100.00;101870.38;5526266;26;19934;-84
2024/04/18 01:27:56;;;;;;;;;;;;;;;6.36;100.00;101879.63;5495270;26;20354;-83
2024/04/18 01:30:21;;;;;;;;;;;;;;;6.42;100.00;101890.81;5463547;26;20254;-83
2024/04/18 01:32:47;;;;;;;;;;;;;;;6.53;100.00;101897.00;5494683;26;19947;-82
2024/04/18 01:35:13;;;;;;;;;;;;;;;6.65;100.00;101897.84;5494912;26;19935;-83
2024/04/18 01:37:38;;;;;;;;;;;;;;;6.79;100.00;101894.91;5525547;26;20004;-83
2024/04/18 01:40:04;;;;;;;;;;;;;;;6.91;100.00;101901.13;5494780;26;19927;-83
2024/04/18 01:42:29;;;;;;;;;;;;;;;7.01;100.00;101904.75;5464703;26;19935;-83
2024/04/18 01:44:55;;;;;;;;;;;;;;;7.09;100.00;101890.72;5494572;26;20355;-83
2024/04/18 01:47:20;;;;;;;;;;;;;;;7.14;100.00;101888.53;5494524;26;19938;-82
2024/04/18 01:49:46;;;;;;;;;;;;;;;7.20;100.00;101889.88;5464128;26;19996;-83
2024/04/18 01:52:11;;;;;;;;;;;;;;;7.25;100.00;101890.31;5525536;26;19928;-85
2024/04/18 01:54:37;;;;;;;;;;;;;;;7.27;100.00;101888.38;5528897;26;20077;-81
2024/04/18 01:57:02;;;;;;;;;;;;;;;7.28;100.00;101890.09;5518566;26;20004;-82
2024/04/18 01:59:28;;;;;;;;;;;;;;;7.29;100.00;101886.41;5509776;26;19927;-82
2024/04/18 02:01:53;;;;;;;;;;;;;;;7.34;100.00;101886.91;5494858;26;19954;-82
2024/04/18 02:04:19;;;;;;;;;;;;;;;7.34;100.00;101878.88;5494375;26;20323;-82
2024/04/18 02:06:45;;;;;;;;;;;;;;;7.35;100.00;101877.88;5464019;26;19959;-82
2024/04/18 02:09:11;;;;;;;;;;;;;;;7.34;100.00;101884.22;5464286;26;20374;-83
2024/04/18 02:11:37;;;;;;;;;;;;;;;7.27;100.00;101875.00;5494173;26;19927;-82
2024/04/18 02:14:02;;;;;;;;;;;;;;;7.20;100.00;101884.53;5463928;26;19996;-82
2024/04/18 02:16:28;;;;;;;;;;;;;;;7.19;100.00;101886.31;5493932;26;19935;-83
2024/04/18 02:18:53;;;;;;;;;;;;;;;7.18;100.00;101889.13;5494077;26;19927;-83
2024/04/18 02:21:19;;;;;;;;;;;;;;;7.17;100.00;101884.75;5493923;26;20087;-82
2024/04/18 02:23:44;;;;;;;;;;;;;;;7.19;100.00;101882.81;5493825;26;19938;-84
2024/04/18 02:26:10;;;;;;;;;;;;;;;7.23;100.00;101890.47;5524876;26;19934;-84
2024/04/18 02:28:36;;;;;;;;;;;;;;;7.26;100.00;101881.31;5524618;26;19931;-84
2024/04/18 02:31:03;;;;;;;;;;;;;;;7.30;100.00;101888.09;5494067;26;19938;-83
2024/04/18 02:33:29;;;;;;;;;;;;;;;7.26;100.00;101881.31;5494115;26;19927;-83
2024/04/18 02:35:54;;;;;;;;;;;;;;;7.20;100.00;101884.53;5524641;26;19991;-83
2024/04/18 02:38:20;;;;;;;;;;;;;;;7.21;100.00;101887.06;5525145;26;19935;-83
2024/04/18 02:40:45;;;;;;;;;;;;;;;7.22;100.00;101894.13;5493647;26;20322;-83
2024/04/18 02:43:11;;;;;;;;;;;;;;;7.25;100.00;101906.38;5497119;26;19927;-83
2024/04/18 02:45:36;;;;;;;;;;;;;;;7.28;100.00;101903.47;5466982;26;20350;-84
2024/04/18 02:48:01;;;;;;;;;;;;;;;7.30;100.00;101904.16;5528092;26;19999;-84
2024/04/18 02:50:27;;;;;;;;;;;;;;;7.32;100.00;101910.25;5467068;26;19928;-84
2024/04/18 02:52:52;;;;;;;;;;;;;;;7.36;100.00;101913.53;5466866;26;19928;-83
2024/04/18 02:55:18;;;;;;;;;;;;;;;7.38;100.00;101915.09;5497178;26;19928;-83
2024/04/18 02:57:43;;;;;;;;;;;;;;;7.39;100.00;101915.97;5528034;26;19955;-83
2024/04/18 03:00:09;;;;;;;;;;;;;;;7.41;100.00;101913.97;5527902;26;20300;-83
2024/04/18 03:02:35;;;;;;;;;;;;;;;7.40;100.00;101915.81;5527805;26;19927;-84
2024/04/18 03:05:01;;;;;;;;;;;;;;;7.40;100.00;101912.28;5497209;26;20007;-83
2024/04/18 03:07:26;;;;;;;;;;;;;;;7.37;100.00;101904.53;5497143;26;19935;-83
2024/04/18 03:09:53;;;;;;;;;;;;;;;7.30;100.00;101898.81;5497020;26;19927;-83
2024/04/18 03:12:18;;;;;;;;;;;;;;;7.25;100.00;101907.25;5527651;26;19938;-85
2024/04/18 03:14:44;;;;;;;;;;;;;;;7.20;100.00;101903.25;5466506;26;19927;-83
2024/04/18 03:17:09;;;;;;;;;;;;;;;7.14;100.00;101906.41;5466809;26;19935;-84
2024/04/18 03:19:35;;;;;;;;;;;;;;;7.11;100.00;101904.81;5528061;26;19927;-83
2024/04/18 03:22:00;;;;;;;;;;;;;;;7.10;100.00;101896.94;5527636;26;19928;-83
2024/04/18 03:24:26;;;;;;;;;;;;;;;7.05;100.00;101892.81;5527627;26;19928;-82
2024/04/18 03:26:51;;;;;;;;;;;;;;;7.04;100.00;101893.78;5496745;26;19932;-83
2024/04/18 03:29:17;;;;;;;;;;;;;;;7.05;100.00;101900.84;5466724;26;20003;-83
2024/04/18 03:31:45;;;;;;;;;;;;;;;7.08;100.00;101905.06;5466328;26;19934;-83
2024/04/18 03:34:10;;;;;;;;;;;;;;;7.09;100.00;101905.94;5527445;26;19935;-83
2024/04/18 03:36:40;;;;;;;;;;;;;;;7.08;100.00;101909.59;5527828;26;19932;-83
2024/04/18 03:39:06;;;;;;;;;;;;;;;7.09;100.00;101905.94;5527794;26;19934;-83
2024/04/18 03:41:32;;;;;;;;;;;;;;;7.08;100.00;101893.53;5496633;26;19927;-83
2024/04/18 03:43:58;;;;;;;;;;;;;;;7.02;100.00;101901.09;5496625;26;19932;-83
2024/04/18 03:46:25;;;;;;;;;;;;;;;7.00;100.00;101902.19;5527665;26;19938;-83
2024/04/18 03:48:51;;;;;;;;;;;;;;;6.99;100.00;101906.69;5496919;26;19963;-83
2024/04/18 03:51:16;;;;;;;;;;;;;;;7.00;100.00;101905.69;5527372;26;20352;-83
2024/04/18 03:53:42;;;;;;;;;;;;;;;7.03;100.00;101905.44;5495657;26;19943;-83
2024/04/18 03:56:07;;;;;;;;;;;;;;;7.04;100.00;101906.31;5496409;26;19927;-83
2024/04/18 03:58:33;;;;;;;;;;;;;;;7.00;100.00;101908.38;5466639;26;20385;-83
2024/04/18 04:00:58;;;;;;;;;;;;;;;6.96;100.00;101906.94;5496060;26;19933;-84
2024/04/18 04:03:24;;;;;;;;;;;;;;;6.97;100.00;101899.75;5496488;26;19933;-83
2024/04/18 04:05:49;;;;;;;;;;;;;;;6.97;100.00;101905.13;5466299;26;19933;-84
2024/04/18 04:08:15;;;;;;;;;;;;;;;6.95;100.00;101905.22;5527645;26;19931;-83
2024/04/18 04:10:43;;;;;;;;;;;;;;;6.95;100.00;101894.53;5465834;26;19942;-83
2024/04/18 04:13:09;;;;;;;;;;;;;;;6.95;100.00;101899.03;5466077;26;20335;-84
2024/04/18 04:15:35;;;;;;;;;;;;;;;6.95;100.00;101910.56;5532865;26;19976;-82
2024/04/18 04:18:00;;;;;;;;;;;;;;;6.96;100.00;101911.41;5520169;25;19949;-82
2024/04/18 04:20:26;;;;;;;;;;;;;;;6.98;100.00;101918.34;5540618;26;19995;-83
2024/04/18 04:22:51;;;;;;;;;;;;;;;6.97;100.00;101919.31;5465801;26;19928;-83
2024/04/18 04:25:17;;;;;;;;;;;;;;;6.98;100.00;101915.66;5527178;26;19927;-83
2024/04/18 04:27:42;;;;;;;;;;;;;;;6.97;100.00;101919.31;5465583;26;19938;-83
2024/04/18 04:30:08;;;;;;;;;;;;;;;6.93;100.00;101917.00;5495983;26;19931;-83
2024/04/18 04:32:34;;;;;;;;;;;;;;;6.91;100.00;101914.47;5496004;26;20373;-83
2024/04/18 04:34:59;;;;;;;;;;;;;;;6.91;100.00;101919.84;5465215;26;19935;-84
2024/04/18 04:37:25;;;;;;;;;;;;;;;6.90;100.00;101917.25;5465646;26;19934;-84
2024/04/18 04:39:50;;;;;;;;;;;;;;;6.86;100.00;101927.38;5526481;26;19927;-84
2024/04/18 04:42:16;;;;;;;;;;;;;;;6.86;100.00;101932.72;5465642;26;19935;-84
2024/04/18 04:44:41;;;;;;;;;;;;;;;6.82;100.00;101926.75;5465281;26;20361;-83
2024/04/18 04:47:07;;;;;;;;;;;;;;;6.80;100.00;101923.38;5526390;26;19937;-83
2024/04/18 04:49:33;;;;;;;;;;;;;;;6.79;100.00;101931.50;5495669;26;19935;-83
2024/04/18 04:51:58;;;;;;;;;;;;;;;6.76;100.00;101929.91;5495588;26;19928;-83
2024/04/18 04:54:24;;;;;;;;;;;;;;;6.73;100.00;101935.50;5526591;26;19927;-85
2024/04/18 04:56:49;;;;;;;;;;;;;;;6.74;100.00;101939.88;5495489;26;19931;-84
2024/04/18 04:59:15;;;;;;;;;;;;;;;6.76;100.00;101948.63;5465340;26;19939;-83
2024/04/18 05:01:40;;;;;;;;;;;;;;;6.79;100.00;101943.03;5526578;26;20310;-83
2024/04/18 05:04:06;;;;;;;;;;;;;;;6.79;100.00;101944.88;5526526;26;19934;-84
2024/04/18 05:06:31;;;;;;;;;;;;;;;6.81;100.00;101949.13;5493736;26;20378;-83
2024/04/18 05:08:57;;;;;;;;;;;;;;;6.81;100.00;101948.28;5526050;26;19931;-83
2024/04/18 05:11:22;;;;;;;;;;;;;;;6.78;100.00;101941.34;5464840;26;20322;-83
2024/04/18 05:13:48;;;;;;;;;;;;;;;6.77;100.00;101944.13;5526136;26;19936;-83
2024/04/18 05:16:13;;;;;;;;;;;;;;;6.74;100.00;101944.38;5464759;26;19935;-84
2024/04/18 05:18:38;;;;;;;;;;;;;;;6.75;100.00;101952.28;5495026;26;19995;-84
2024/04/18 05:21:07;;;;;;;;;;;;;;;6.74;100.00;101950.56;5526202;26;19936;-84
2024/04/18 05:23:33;;;;;;;;;;;;;;;6.77;100.00;101945.00;5526110;26;20254;-83
2024/04/18 05:25:58;;;;;;;;;;;;;;;6.79;100.00;101947.53;5464631;26;20347;-83
2024/04/18 05:28:40;;;;;;;;;;;;;;;6.81;100.00;101950.94;5464589;26;19927;-83
2024/04/18 05:31:06;;;;;;;;;;;;;;;6.82;100.00;101936.59;5525810;26;19934;-83
2024/04/18 05:33:32;;;;;;;;;;;;;;;6.82;100.00;101937.44;5464251;26;20360;-84
2024/04/18 05:35:58;;;;;;;;;;;;;;;6.85;100.00;101951.53;5464229;26;19927;-83
2024/04/18 05:38:23;;;;;;;;;;;;;;;6.86;100.00;101948.75;5494579;26;19934;-84
2024/04/18 05:40:49;;;;;;;;;;;;;;;6.87;100.00;101950.44;5525401;26;19939;-83
2024/04/18 05:43:14;;;;;;;;;;;;;;;6.89;100.00;101953.00;5494803;26;19928;-83
2024/04/18 05:45:41;;;;;;;;;;;;;;;6.90;100.00;101955.53;5464267;26;20282;-83
2024/04/18 05:48:07;;;;;;;;;;;;;;;6.91;100.00;101949.25;5494601;26;19935;-82
2024/04/18 05:50:32;;;;;;;;;;;;;;;6.93;100.00;101939.28;5464178;26;19927;-83
2024/04/18 05:52:58;;;;;;;;;;;;;;;6.95;100.00;101939.13;5494391;26;20254;-83
2024/04/18 05:55:24;;;;;;;;;;;;;;;6.97;100.00;101932.69;5494785;26;19928;-83
2024/04/18 05:57:49;;;;;;;;;;;;;;;6.99;100.00;101932.59;5525093;26;19935;-83
2024/04/18 06:00:15;;;;;;;;;;;;;;;7.01;100.00;101934.16;5494306;26;20355;-85
2024/04/18 06:02:40;;;;;;;;;;;;;;;7.07;100.00;101940.00;5494532;26;19934;-84
2024/04/18 06:05:06;;;;;;;;;;;;;;;7.15;100.00;101932.19;5525048;26;19934;-83
2024/04/18 06:07:32;;;;;;;;;;;;;;;7.25;100.00;101928.63;5494897;26;19952;-84
2024/04/18 06:09:58;;;;;;;;;;;;;;;7.38;100.00;101931.16;5494419;26;20447;-83
2024/04/18 06:12:23;;;;;;;;;;;;;;;7.52;100.00;101929.19;5526260;26;19934;-84
2024/04/18 06:18:34;;;;;;;;;;;;;;;7.78;100.00;101935.00;5417462;26;19932;-83
2024/04/18 06:21:00;;;;;;;;;;;;;;;7.80;100.00;101947.28;5460388;26;19939;-83
2024/04/18 06:23:25;;;;;;;;;;;;;;;7.84;100.00;101940.72;5497823;26;19927;-85
2024/04/18 06:25:51;;;;;;;;;;;;;;;7.95;100.00;101942.47;5497573;26;19927;-84
2024/04/18 06:28:16;;;;;;;;;;;;;;;7.96;100.00;101938.81;5497609;26;20258;-83
2024/04/18 06:30:42;;;;;;;;;;;;;;;7.98;100.00;101939.53;5497840;26;19934;-83
2024/04/18 06:33:07;;;;;;;;;;;;;;;7.96;100.00;101946.84;5529027;26;19927;-83
2024/04/18 06:35:33;;;;;;;;;;;;;;;7.97;100.00;101955.75;5532251;26;19934;-83
2024/04/18 06:37:58;;;;;;;;;;;;;;;8.01;100.00;101949.16;5491555;26;19963;-82
2024/04/18 06:40:24;;;;;;;;;;;;;;;8.07;100.00;101951.28;5483028;26;19963;-83
2024/04/18 06:42:50;;;;;;;;;;;;;;;8.17;100.00;101948.69;5467293;26;19932;-83
2024/04/18 06:45:17;;;;;;;;;;;;;;;8.28;100.00;101949.47;5467043;26;19927;-83
2024/04/18 06:47:43;;;;;;;;;;;;;;;8.36;100.00;101957.72;5467432;26;19935;-83
2024/04/18 06:50:09;;;;;;;;;;;;;;;8.43;100.00;101958.06;5497405;26;19927;-83
2024/04/18 06:52:34;;;;;;;;;;;;;;;8.49;100.00;101967.38;5497244;26;20002;-83
2024/04/18 06:55:00;;;;;;;;;;;;;;;8.49;100.00;101951.31;5497179;26;19959;-84
2024/04/18 06:57:25;;;;;;;;;;;;;;;8.51;100.00;101970.78;5497140;26;19937;-83
2024/04/18 06:59:52;;;;;;;;;;;;;;;8.46;100.00;101967.66;5466731;26;19938;-84
2024/04/18 07:02:17;;;;;;;;;;;;;;;8.43;100.00;101965.25;5497498;26;20366;-84
2024/04/18 07:04:44;;;;;;;;;;;;;;;8.35;100.00;101958.69;5527654;26;19934;-83
2024/04/18 07:07:10;;;;;;;;;;;;;;;8.32;100.00;101953.59;5467359;26;20405;-83
2024/04/18 07:09:36;;;;;;;;;;;;;;;8.32;100.00;101944.69;5497030;26;19995;-83
2024/04/18 07:12:01;;;;;;;;;;;;;;;8.36;100.00;101955.03;5466570;26;19947;-83
2024/04/18 07:14:27;;;;;;;;;;;;;;;8.56;100.00;101949.81;5497134;26;20348;-84
2024/04/18 07:16:52;;;;;;;;;;;;;;;8.83;100.00;101951.03;5497283;26;19995;-83
2024/04/18 07:19:17;;;;;;;;;;;;;;;9.18;100.00;101956.81;5527745;26;20362;-83
2024/04/18 07:21:43;;;;;;;;;;;;;;;9.54;100.00;101953.63;5496711;26;19928;-83
2024/04/18 07:24:09;;;;;;;;;;;;;;;9.65;100.00;101957.00;5527904;26;19927;-84
2024/04/18 07:26:34;;;;;;;;;;;;;;;9.63;100.00;101955.47;5527725;26;19998;-85
2024/04/18 07:29:00;;;;;;;;;;;;;;;9.56;100.00;101959.72;5465081;26;19934;-84
2024/04/18 07:31:25;;;;;;;;;;;;;;;9.55;100.00;101955.31;5466267;26;19928;-84
2024/04/18 07:33:51;;;;;;;;;;;;;;;9.63;100.00;101955.47;5466181;26;19928;-84
2024/04/18 07:36:21;;;;;;;;;;;;;;;9.83;100.00;101950.97;5496667;26;19995;-84
2024/04/18 07:38:49;;;;;;;;;;;;;;;10.30;100.00;101940.31;5468714;26;19927;-84
2024/04/18 07:41:14;;;;;;;;;;;;;;;10.92;100.00;101946.03;5496813;26;20358;-85
2024/04/18 07:43:41;;;;;;;;;;;;;;;11.41;100.00;101934.00;5466457;26;19934;-83
2024/04/18 07:46:06;;;;;;;;;;;;;;;11.78;100.00;101937.56;5496663;26;19928;-85
2024/04/18 07:48:32;;;;;;;;;;;;;;;12.35;100.00;101929.06;5496679;26;19928;-85
2024/04/18 07:50:57;;;;;;;;;;;;;;;12.82;100.00;101932.19;5527421;26;20003;-85
2024/04/18 07:53:23;;;;;;;;;;;;;;;12.90;100.00;101934.09;5465914;26;19927;-85
2024/04/18 07:55:49;;;;;;;;;;;;;;;12.81;100.00;101943.16;5496570;26;19936;-83
2024/04/18 07:58:14;;;;;;;;;;;;;;;12.58;100.00;101938.31;5496293;26;19997;-85
2024/04/18 08:00:40;;;;;;;;;;;;;;;12.24;100.00;101938.28;5496209;26;19935;-84
2024/04/18 08:03:05;;;;;;;;;;;;;;;11.98;100.00;101940.94;5496508;26;20311;-84
2024/04/18 08:05:31;;;;;;;;;;;;;;;11.64;100.00;101947.00;5526989;26;19927;-85
2024/04/18 08:07:56;;;;;;;;;;;;;;;11.52;100.00;101946.41;5526941;26;19972;-85
2024/04/18 08:10:24;;;;;;;;;;;;;;;11.43;100.00;101949.97;5527047;26;19928;-85
2024/04/18 08:12:59;;;;;;;;;;;;;;;11.45;100.00;101943.44;5498412;26;19927;-85
2024/04/18 08:15:25;;;;;;;;;;;;;;;11.56;100.00;101931.59;5527494;26;19927;-85
2024/04/18 08:18:01;;;;;;;;;;;;;;;11.55;100.00;101929.91;5470479;26;19927;-85
2024/04/18 08:20:27;;;;;;;;;;;;;;;11.56;100.00;101949.63;5496662;26;19931;-86
2024/04/18 08:22:52;;;;;;;;;;;;;;;11.56;100.00;101944.22;5526801;26;19935;-85
2024/04/18 08:25:40;;;;;;;;;;;;;;;11.60;100.00;101943.78;5474074;26;19927;-89
2024/04/18 08:28:05;;;;;;;;;;;;;;;11.76;100.00;101931.47;5525254;26;19934;-88
2024/04/18 08:30:31;;;;;;;;;;;;;;;12.05;100.00;101942.00;5462081;26;19945;-90
2024/04/18 08:32:57;;;;;;;;;;;;;;;12.28;100.00;101948.59;5492242;26;19927;-89
2024/04/18 08:35:22;;;;;;;;;;;;;;;12.37;100.00;101954.03;5462177;26;19927;-90
2024/04/18 08:37:50;;;;;;;;;;;;;;;12.44;100.00;101952.41;5492639;26;19933;-89
2024/04/18 08:40:15;;;;;;;;;;;;;;;12.63;100.00;101944.09;5492715;26;19927;-89
2024/04/18 08:42:41;;;;;;;;;;;;;;;12.89;100.00;101943.22;5462178;26;19928;-87
2024/04/18 08:45:07;;;;;;;;;;;;;;;13.07;100.00;101943.97;5495176;26;19963;-88
2024/04/18 08:47:33;;;;;;;;;;;;;;;13.25;100.00;101946.53;5497572;26;19928;-88
2024/04/18 08:49:58;;;;;;;;;;;;;;;13.48;100.00;101943.25;5495966;26;20261;-89
2024/04/18 08:52:24;;;;;;;;;;;;;;;13.50;100.00;101938.53;5495701;26;19927;-88
2024/04/18 08:54:49;;;;;;;;;;;;;;;13.96;98.14;101936.19;5468069;26;19935;-88
2024/04/18 08:57:18;;;;;;;;;;;;;;;14.62;91.42;101924.28;5506325;25;19927;-87
2024/04/18 08:59:44;;;;;;;;;;;;;;;14.40;88.08;101925.84;5521558;25;19931;-89
2024/04/18 09:02:10;;;;;;;;;;;;;;;14.02;85.48;101936.34;5536631;25;19935;-88
2024/04/18 09:04:35;;;;;;;;;;;;;;;13.79;82.64;101930.78;5495539;26;19932;-89
2024/04/18 09:07:01;;;;;;;;;;;;;;;13.27;86.50;101928.34;5495404;26;19927;-88
2024/04/18 09:09:26;;;;;;;;;;;;;;;12.93;90.45;101929.19;5465153;26;19943;-89
2024/04/18 09:11:52;;;;;;;;;;;;;;;12.88;91.40;101926.16;5495412;26;20370;-89
2024/04/18 09:14:17;;;;;;;;;;;;;;;13.14;90.71;101925.22;5526682;26;19995;-89
2024/04/18 09:16:43;;;;;;;;;;;;;;;13.31;88.09;101939.66;5467574;26;19932;-88
2024/04/18 09:19:09;;;;;;;;;;;;;;;13.45;87.64;101928.22;5473897;26;19935;-87
2024/04/18 09:21:35;;;;;;;;;;;;;;;13.50;85.06;101928.56;5487445;26;19927;-87
2024/04/18 09:24:00;;;;;;;;;;;;;;;13.66;82.40;101926.91;5498401;26;20369;-88
2024/04/18 09:26:28;;;;;;;;;;;;;;;13.62;82.45;101932.63;5495339;26;19928;-87
2024/04/18 09:28:54;;;;;;;;;;;;;;;13.61;80.99;101928.22;5495712;26;19927;-87
2024/04/18 09:31:19;;;;;;;;;;;;;;;13.49;76.18;101937.66;5526239;26;19928;-89
2024/04/18 09:33:48;;;;;;;;;;;;;;;13.93;75.12;101931.97;5495258;26;19934;-88
2024/04/18 09:36:15;;;;;;;;;;;;;;;14.88;69.90;101934.84;5464763;26;20017;-88
2024/04/18 09:38:42;;;;;;;;;;;;;;;15.56;66.45;101927.03;5494943;26;19928;-89
2024/04/18 09:41:11;;;;;;;;;;;;;;;15.37;65.20;101922.91;5494919;26;19927;-88
2024/04/18 09:43:45;;;;;;;;;;;;;;;14.98;68.11;101918.41;5494720;26;19960;-88
2024/04/18 09:46:11;;;;;;;;;;;;;;;14.92;68.54;101922.66;5525455;26;19927;-90
2024/04/18 09:48:36;;;;;;;;;;;;;;;15.02;68.22;101925.13;5495202;26;19931;-87
2024/04/18 09:51:02;;;;;;;;;;;;;;;15.10;69.31;101910.72;5464250;26;19939;-89
2024/04/18 09:53:29;;;;;;;;;;;;;;;15.43;66.63;101919.50;5467738;26;20378;-88
2024/04/18 09:55:54;;;;;;;;;;;;;;;15.69;66.36;101918.31;5498306;26;20429;-88
2024/04/18 09:58:20;;;;;;;;;;;;;;;15.18;69.27;101922.34;5528204;26;20154;-90
2024/04/18 10:00:45;;;;;;;;;;;;;;;14.75;70.85;101921.03;5498069;26;19927;-88
2024/04/18 10:03:11;;;;;;;;;;;;;;;14.51;73.76;101914.63;5497947;26;19936;-89
2024/04/18 10:05:38;;;;;;;;;;;;;;;14.07;74.90;101906.94;5497764;26;19927;-89
2024/04/18 10:08:04;;;;;;;;;;;;;;;13.75;75.84;101906.97;5498373;26;19927;-88
2024/04/18 10:10:29;;;;;;;;;;;;;;;13.75;78.96;101907.78;5528760;26;19934;-88
2024/04/18 10:12:55;;;;;;;;;;;;;;;13.73;78.81;101911.69;5528812;26;20418;-88
2024/04/18 10:15:23;;;;;;;;;;;;;;;13.70;80.99;101914.72;5528825;26;19928;-88
2024/04/18 10:17:49;;;;;;;;;;;;;;;13.78;80.02;101912.03;5469706;26;20381;-88
2024/04/18 10:20:14;;;;;;;;;;;;;;;13.63;80.44;101909.16;5530635;26;19931;-88
2024/04/18 10:22:40;;;;;;;;;;;;;;;13.41;81.66;101908.78;5498489;26;20350;-88
2024/04/18 10:25:16;;;;;;;;;;;;;;;13.42;81.28;101906.94;5468812;26;20445;-90
2024/04/18 10:27:42;;;;;;;;;;;;;;;13.29;81.65;101910.13;5497721;26;19931;-89
2024/04/18 10:30:12;;;;;;;;;;;;;;;12.89;84.47;101914.34;5497784;26;20367;-89
2024/04/18 10:32:38;;;;;;;;;;;;;;;12.53;86.83;101908.28;5466664;26;19935;-89
2024/04/18 10:35:03;;;;;;;;;;;;;;;12.30;88.82;101921.44;5464366;26;20350;-88
2024/04/18 10:37:29;;;;;;;;;;;;;;;12.09;91.77;101913.72;5525055;26;19928;-88
2024/04/18 10:39:57;;;;;;;;;;;;;;;11.91;93.98;101907.53;5525021;26;19934;-88
2024/04/18 10:42:23;;;;;;;;;;;;;;;11.89;94.65;101913.09;5464367;26;19999;-89
2024/04/18 10:44:49;;;;;;;;;;;;;;;11.98;95.51;101916.69;5524870;26;19927;-89
2024/04/18 10:47:18;;;;;;;;;;;;;;;12.08;95.28;101914.75;5464133;26;19934;-88
2024/04/18 10:49:43;;;;;;;;;;;;;;;12.15;94.20;101918.50;5497304;26;19928;-87
2024/04/18 10:52:10;;;;;;;;;;;;;;;12.14;93.87;101915.94;5466860;26;19938;-88
2024/04/18 10:54:36;;;;;;;;;;;;;;;12.32;93.24;101911.34;5467435;26;19941;-89
2024/04/18 10:57:01;;;;;;;;;;;;;;;12.52;91.24;101904.75;5528171;26;20389;-88
2024/04/18 10:59:27;;;;;;;;;;;;;;;12.54;90.48;101904.56;5528178;26;20384;-89
2024/04/18 11:02:05;;;;;;;;;;;;;;;12.62;91.35;101904.63;5528795;26;19928;-89
2024/04/18 11:04:31;;;;;;;;;;;;;;;12.67;91.73;101906.81;5526752;26;19928;-88
2024/04/18 11:06:56;;;;;;;;;;;;;;;12.66;90.98;101900.59;5497111;26;19932;-88
2024/04/18 11:09:22;;;;;;;;;;;;;;;12.83;90.31;101904.19;5528051;26;19963;-88
2024/04/18 11:11:48;;;;;;;;;;;;;;;13.00;89.09;101897.00;5497319;26;19932;-88
2024/04/18 11:14:13;;;;;;;;;;;;;;;13.43;86.96;101887.00;5528595;26;19927;-89
2024/04/18 11:16:39;;;;;;;;;;;;;;;13.92;84.25;101887.03;5529757;26;19927;-88
2024/04/18 11:19:04;;;;;;;;;;;;;;;14.35;82.19;101887.63;5471887;26;19928;-88
2024/04/18 11:21:30;;;;;;;;;;;;;;;14.66;78.60;101892.28;5516211;25;19919;-88
2024/04/18 11:23:56;;;;;;;;;;;;;;;14.82;77.13;101894.94;5522741;25;19926;-89
2024/04/18 11:26:22;;;;;;;;;;;;;;;14.67;78.06;101891.28;5477971;26;20350;-88
2024/04/18 11:28:52;;;;;;;;;;;;;;;14.16;79.33;101888.03;5500636;26;19934;-88
2024/04/18 11:31:17;;;;;;;;;;;;;;;13.97;82.51;101897.31;5468027;26;20426;-89
2024/04/18 11:33:43;;;;;;;;;;;;;;;13.92;82.08;101896.97;5497231;26;19935;-89
2024/04/18 11:36:08;;;;;;;;;;;;;;;13.85;81.46;101899.53;5468066;26;20003;-88
2024/04/18 11:38:34;;;;;;;;;;;;;;;13.80;83.00;101896.50;5468144;26;20354;-87
2024/04/18 11:41:00;;;;;;;;;;;;;;;14.03;82.46;101883.13;5499157;26;19939;-88
2024/04/18 11:43:25;;;;;;;;;;;;;;;14.15;80.45;101883.59;5498545;26;19935;-87
2024/04/18 11:45:51;;;;;;;;;;;;;;;14.11;82.07;101887.69;5530383;26;19927;-88
2024/04/18 11:48:16;;;;;;;;;;;;;;;14.20;81.24;101883.94;5531277;26;19931;-88
2024/04/18 11:50:42;;;;;;;;;;;;;;;14.19;81.39;101883.09;5486057;25;19926;-87
2024/04/18 11:53:09;;;;;;;;;;;;;;;14.33;83.39;101878.84;5541878;26;19938;-87
2024/04/18 11:55:37;;;;;;;;;;;;;;;14.31;83.68;101875.44;5497317;26;19928;-88
2024/04/18 11:58:03;;;;;;;;;;;;;;;14.02;84.60;101884.97;5466327;26;19938;-88
2024/04/18 12:00:29;;;;;;;;;;;;;;;13.44;87.56;101877.88;5466366;26;19931;-87
2024/04/18 12:02:55;;;;;;;;;;;;;;;13.19;91.38;101880.50;5496495;26;20003;-89
2024/04/18 12:05:21;;;;;;;;;;;;;;;13.06;92.74;101882.00;5527585;26;19934;-87
2024/04/18 12:07:47;;;;;;;;;;;;;;;12.96;94.06;101885.69;5466166;26;19931;-87
2024/04/18 12:10:13;;;;;;;;;;;;;;;12.68;97.27;101881.53;5466062;26;19938;-88
2024/04/18 12:12:38;;;;;;;;;;;;;;;12.47;100.00;101885.50;5527468;26;20354;-87
2024/04/18 12:15:05;;;;;;;;;;;;;;;12.47;100.00;101874.69;5495666;26;20247;-89
2024/04/18 12:17:31;;;;;;;;;;;;;;;12.47;100.00;101876.56;5527232;26;19933;-88
2024/04/18 12:19:56;;;;;;;;;;;;;;;12.51;100.00;101877.91;5466099;26;19964;-87
2024/04/18 12:22:22;;;;;;;;;;;;;;;12.41;100.00;101880.75;5527134;26;20377;-88
2024/04/18 12:24:48;;;;;;;;;;;;;;;12.29;100.00;101882.00;5465881;26;19995;-87
2024/04/18 12:27:35;;;;;;;;;;;;;;;12.31;100.00;101886.25;5466172;26;19956;-87
2024/04/18 12:30:21;;;;;;;;;;;;;;;12.45;100.00;101881.25;5526542;26;20286;-88
2024/04/18 12:32:47;;;;;;;;;;;;;;;12.54;100.00;101882.97;5465962;26;20358;-87